Time,TemperatureF,DewpointF,PressureIn,WindDirection,WindDirectionDegrees,WindSpeedMPH,WindSpeedGustMPH,Humidity,HourlyPrecipIn,Conditions,Clouds,dailyrainin,SoftwareType,DateUTC
2013-05-29 00:00:00,54.5,52.2,29.40,NNE,16,3.0,3.0,92,1.78,,,1.73,Wunderground v.1.13,2013-05-29 06:00:00,
2013-05-29 00:05:00,54.5,52.5,29.45,WNW,298,0.0,14.0,93,0.63,,,0.03,Wunderground v.1.13,2013-05-29 06:05:00,
2013-05-29 00:10:00,54.7,52.7,29.45,North,360,2.0,14.0,93,0.26,,,0.06,Wunderground v.1.13,2013-05-29 06:10:00,
2013-05-29 00:15:00,54.7,52.7,29.45,North,351,7.0,14.0,93,0.35,,,0.12,Wunderground v.1.13,2013-05-29 06:15:00,
2013-05-29 00:20:00,54.8,52.8,29.47,NNE,22,8.0,8.0,93,0.14,,,0.13,Wunderground v.1.13,2013-05-29 06:20:00,
2013-05-29 00:24:00,55.1,53.1,29.47,North,360,2.0,2.0,93,0.36,,,0.15,Wunderground v.1.13,2013-05-29 06:24:00,
2013-05-29 00:30:00,55.4,53.7,29.47,NW,319,1.0,18.0,94,0.28,,,0.17,Wunderground v.1.13,2013-05-29 06:30:00,
2013-05-29 00:35:00,55.7,53.7,29.48,NNE,29,6.0,14.0,93,0.31,,,0.19,Wunderground v.1.13,2013-05-29 06:35:00,
2013-05-29 00:40:00,55.7,53.7,29.48,North,351,10.0,10.0,93,0.98,,,0.28,Wunderground v.1.13,2013-05-29 06:40:00,
2013-05-29 00:50:00,55.6,53.6,29.45,NNE,33,7.0,14.0,93,0.19,,,0.39,Wunderground v.1.13,2013-05-29 06:50:00,
2013-05-29 00:55:00,55.6,53.6,29.45,East,82,6.0,6.0,93,0.14,,,0.40,Wunderground v.1.13,2013-05-29 06:55:00,
2013-05-29 01:00:00,55.6,53.6,29.45,NE,46,6.0,14.0,93,0.13,,,0.41,Wunderground v.1.13,2013-05-29 07:00:00,
2013-05-29 01:05:00,55.7,53.7,29.42,East,92,6.0,14.0,93,0.22,,,0.43,Wunderground v.1.13,2013-05-29 07:05:00,
2013-05-29 01:10:00,55.7,53.4,29.42,NE,51,7.0,7.0,92,0.21,,,0.45,Wunderground v.1.13,2013-05-29 07:10:00,
2013-05-29 01:15:00,55.7,53.4,29.42,ENE,66,6.0,14.0,92,0.08,,,0.45,Wunderground v.1.13,2013-05-29 07:15:00,
2013-05-29 01:25:00,55.9,53.6,29.42,ENE,59,4.0,14.0,92,0.00,,,0.45,Wunderground v.1.13,2013-05-29 07:25:00,
2013-05-29 01:35:00,55.9,53.3,29.40,NE,40,7.0,14.0,91,0.00,,,0.45,Wunderground v.1.13,2013-05-29 07:35:00,
2013-05-29 01:40:00,55.9,53.3,29.40,NE,34,9.0,9.0,91,0.00,,,0.45,Wunderground v.1.13,2013-05-29 07:40:00,
2013-05-29 01:49:00,56.0,53.4,29.37,NE,51,6.0,17.0,91,0.00,,,0.45,Wunderground v.1.13,2013-05-29 07:49:00,
2013-05-29 01:54:00,56.0,53.4,29.37,NE,49,5.0,5.0,91,0.00,,,0.45,Wunderground v.1.13,2013-05-29 07:54:00,
2013-05-29 01:59:00,56.0,53.4,29.37,NNE,15,4.0,14.0,91,0.00,,,0.45,Wunderground v.1.13,2013-05-29 07:59:00,
2013-05-29 02:05:00,56.0,53.4,29.36,NE,35,5.0,5.0,91,0.00,,,0.45,Wunderground v.1.13,2013-05-29 08:05:00,
2013-05-29 02:10:00,56.0,53.4,29.36,North,360,6.0,6.0,91,0.00,,,0.45,Wunderground v.1.13,2013-05-29 08:10:00,
2013-05-29 02:15:00,56.0,53.4,29.36,North,5,5.0,5.0,91,0.00,,,0.45,Wunderground v.1.13,2013-05-29 08:15:00,
2013-05-29 02:20:00,56.0,53.4,29.36,ENE,65,2.0,2.0,91,0.00,,,0.45,Wunderground v.1.13,2013-05-29 08:20:00,
2013-05-29 02:25:00,56.0,53.1,29.36,NE,39,0.0,14.0,90,0.00,,,0.45,Wunderground v.1.13,2013-05-29 08:25:00,
2013-05-29 02:29:00,56.0,53.1,29.36,East,83,0.0,14.0,90,0.00,,,0.45,Wunderground v.1.13,2013-05-29 08:29:00,
2013-05-29 02:34:00,55.9,53.3,29.37,East,83,0.0,14.0,91,0.00,,,0.45,Wunderground v.1.13,2013-05-29 08:34:00,
2013-05-29 02:40:00,55.9,53.3,29.37,East,83,0.0,14.0,91,0.00,,,0.45,Wunderground v.1.13,2013-05-29 08:40:00,
2013-05-29 02:45:00,55.7,53.1,29.37,East,83,0.0,14.0,91,0.00,,,0.45,Wunderground v.1.13,2013-05-29 08:45:00,
2013-05-29 02:50:00,55.7,53.4,29.38,East,83,0.0,14.0,92,0.00,,,0.45,Wunderground v.1.13,2013-05-29 08:50:00,
2013-05-29 02:55:00,55.7,53.4,29.38,East,82,0.0,14.0,92,0.00,,,0.45,Wunderground v.1.13,2013-05-29 08:55:00,
2013-05-29 03:00:00,55.9,53.6,29.38,East,82,0.0,14.0,92,0.00,,,0.45,Wunderground v.1.13,2013-05-29 09:00:00,
2013-05-29 03:05:00,55.9,53.6,29.38,East,82,0.0,14.0,92,0.00,,,0.45,Wunderground v.1.13,2013-05-29 09:05:00,
2013-05-29 03:09:00,56.0,53.7,29.38,East,82,0.0,14.0,92,0.00,,,0.45,Wunderground v.1.13,2013-05-29 09:09:00,
2013-05-29 03:14:00,56.2,53.9,29.38,East,82,0.0,14.0,92,0.00,,,0.45,Wunderground v.1.13,2013-05-29 09:14:00,
2013-05-29 03:20:00,56.3,54.0,29.39,East,82,0.0,14.0,92,0.00,,,0.45,Wunderground v.1.13,2013-05-29 09:20:00,
2013-05-29 03:30:00,56.3,53.7,29.39,East,82,0.0,14.0,91,0.00,,,0.45,Wunderground v.1.13,2013-05-29 09:30:00,
2013-05-29 03:35:00,56.3,53.7,29.40,East,82,0.0,14.0,91,0.00,,,0.45,Wunderground v.1.13,2013-05-29 09:35:00,
2013-05-29 03:40:00,56.3,54.0,29.40,East,82,0.0,14.0,92,0.00,,,0.45,Wunderground v.1.13,2013-05-29 09:40:00,
2013-05-29 03:45:00,56.3,54.0,29.40,East,82,0.0,14.0,92,0.00,,,0.45,Wunderground v.1.13,2013-05-29 09:45:00,
2013-05-29 03:50:00,56.3,54.0,29.40,East,82,0.0,14.0,92,0.00,,,0.45,Wunderground v.1.13,2013-05-29 09:50:00,
2013-05-29 03:55:00,56.3,54.0,29.40,East,82,0.0,14.0,92,0.00,,,0.45,Wunderground v.1.13,2013-05-29 09:55:00,
2013-05-29 04:05:00,56.6,54.3,29.41,East,82,0.0,14.0,92,0.00,,,0.45,Wunderground v.1.13,2013-05-29 10:05:00,
2013-05-29 04:10:00,56.6,54.3,29.41,East,82,0.0,14.0,92,0.00,,,0.45,Wunderground v.1.13,2013-05-29 10:10:00,
2013-05-29 04:15:00,56.5,54.2,29.41,East,82,0.0,14.0,92,0.00,,,0.45,Wunderground v.1.13,2013-05-29 10:15:00,
2013-05-29 04:20:00,56.3,54.0,29.40,East,82,0.0,14.0,92,0.00,,,0.45,Wunderground v.1.13,2013-05-29 10:20:00,
2013-05-29 04:25:00,56.3,54.0,29.40,East,82,0.0,14.0,92,0.00,,,0.45,Wunderground v.1.13,2013-05-29 10:25:00,
2013-05-29 04:30:00,56.2,53.9,29.40,East,82,0.0,14.0,92,0.00,,,0.45,Wunderground v.1.13,2013-05-29 10:30:00,
2013-05-29 04:40:00,56.0,54.0,29.40,East,82,0.0,14.0,93,0.00,,,0.45,Wunderground v.1.13,2013-05-29 10:40:00,
2013-05-29 04:45:00,56.0,54.0,29.40,East,82,0.0,14.0,93,0.00,,,0.45,Wunderground v.1.13,2013-05-29 10:45:00,
2013-05-29 04:50:00,56.0,54.0,29.40,East,82,0.0,14.0,93,0.00,,,0.45,Wunderground v.1.13,2013-05-29 10:50:00,
2013-05-29 04:54:00,55.9,53.9,29.40,East,82,0.0,14.0,93,0.00,,,0.45,Wunderground v.1.13,2013-05-29 10:54:00,
2013-05-29 04:59:00,55.9,53.9,29.40,East,82,0.0,14.0,93,0.00,,,0.45,Wunderground v.1.13,2013-05-29 10:59:00,
2013-05-29 05:05:00,55.9,53.9,29.39,East,82,0.0,14.0,93,0.00,,,0.45,Wunderground v.1.13,2013-05-29 11:05:00,
2013-05-29 05:10:00,55.9,53.9,29.39,East,82,0.0,14.0,93,0.00,,,0.45,Wunderground v.1.13,2013-05-29 11:10:00,
2013-05-29 05:15:00,55.7,54.0,29.39,East,81,0.0,14.0,94,0.00,,,0.45,Wunderground v.1.13,2013-05-29 11:15:00,
2013-05-29 05:20:00,55.7,54.0,29.38,East,81,0.0,14.0,94,0.00,,,0.45,Wunderground v.1.13,2013-05-29 11:20:00,
2013-05-29 05:25:00,55.6,53.9,29.38,East,80,0.0,14.0,94,0.00,,,0.45,Wunderground v.1.13,2013-05-29 11:25:00,
2013-05-29 05:30:00,55.4,53.7,29.38,East,80,0.0,14.0,94,0.00,,,0.45,Wunderground v.1.13,2013-05-29 11:30:00,
2013-05-29 05:35:00,55.4,53.7,29.38,East,81,0.0,14.0,94,0.00,,,0.45,Wunderground v.1.13,2013-05-29 11:35:00,
2013-05-29 05:40:00,55.4,53.7,29.38,East,81,0.0,14.0,94,0.00,,,0.45,Wunderground v.1.13,2013-05-29 11:40:00,
2013-05-29 05:45:00,55.4,53.7,29.38,East,81,0.0,14.0,94,0.00,,,0.45,Wunderground v.1.13,2013-05-29 11:45:00,
2013-05-29 05:50:00,55.6,53.9,29.38,East,81,0.0,14.0,94,0.00,,,0.45,Wunderground v.1.13,2013-05-29 11:50:00,
2013-05-29 05:55:00,55.7,54.0,29.38,East,81,0.0,14.0,94,0.00,,,0.45,Wunderground v.1.13,2013-05-29 11:55:00,
2013-05-29 06:00:00,55.9,54.2,29.38,East,80,0.0,14.0,94,0.00,,,0.45,Wunderground v.1.13,2013-05-29 12:00:00,
2013-05-29 06:05:00,56.0,54.3,29.37,East,80,0.0,14.0,94,0.00,,,0.45,Wunderground v.1.13,2013-05-29 12:05:00,
2013-05-29 06:10:00,56.0,54.3,29.37,East,80,0.0,14.0,94,0.00,,,0.45,Wunderground v.1.13,2013-05-29 12:10:00,
2013-05-29 06:15:00,56.2,54.5,29.37,East,80,0.0,14.0,94,0.00,,,0.45,Wunderground v.1.13,2013-05-29 12:15:00,
2013-05-29 06:20:00,56.6,54.9,29.36,East,80,0.0,14.0,94,0.00,,,0.45,Wunderground v.1.13,2013-05-29 12:20:00,
2013-05-29 06:25:00,56.9,55.2,29.36,East,80,0.0,14.0,94,0.00,,,0.45,Wunderground v.1.13,2013-05-29 12:25:00,
2013-05-29 06:35:00,57.3,55.3,29.36,NE,42,0.0,14.0,93,0.00,,,0.45,Wunderground v.1.13,2013-05-29 12:35:00,
2013-05-29 06:40:00,57.8,55.8,29.36,NE,42,0.0,14.0,93,0.00,,,0.45,Wunderground v.1.13,2013-05-29 12:40:00,
2013-05-29 06:45:00,58.1,55.8,29.36,NE,43,0.0,14.0,92,0.00,,,0.45,Wunderground v.1.13,2013-05-29 12:45:00,
2013-05-29 06:50:00,58.3,55.7,29.35,ENE,70,0.0,14.0,91,0.00,,,0.45,Wunderground v.1.13,2013-05-29 12:50:00,
2013-05-29 06:55:00,58.1,55.2,29.35,ENE,74,0.0,14.0,90,0.00,,,0.45,Wunderground v.1.13,2013-05-29 12:55:00,
2013-05-29 07:00:00,58.1,55.2,29.35,NE,55,0.0,14.0,90,0.00,,,0.45,Wunderground v.1.13,2013-05-29 13:00:00,
2013-05-29 07:05:00,58.1,55.2,29.34,East,82,0.0,14.0,90,0.00,,,0.45,Wunderground v.1.13,2013-05-29 13:05:00,
2013-05-29 07:10:00,58.6,55.7,29.34,East,83,0.0,14.0,90,0.00,,,0.45,Wunderground v.1.13,2013-05-29 13:10:00,
2013-05-29 07:15:00,59.0,55.8,29.34,East,82,0.0,14.0,89,0.00,,,0.45,Wunderground v.1.13,2013-05-29 13:15:00,
2013-05-29 07:19:00,59.2,55.6,29.34,East,81,0.0,14.0,88,0.00,,,0.45,Wunderground v.1.13,2013-05-29 13:19:00,
2013-05-29 07:25:00,59.3,55.7,29.34,ENE,64,0.0,14.0,88,0.00,,,0.45,Wunderground v.1.13,2013-05-29 13:25:00,
2013-05-29 07:30:00,59.6,55.4,29.34,ENE,68,0.0,14.0,86,0.00,,,0.45,Wunderground v.1.13,2013-05-29 13:30:00,
2013-05-29 07:35:00,59.6,55.4,29.34,East,101,0.0,14.0,86,0.00,,,0.45,Wunderground v.1.13,2013-05-29 13:35:00,
2013-05-29 07:40:00,59.8,55.3,29.34,ESE,122,0.0,14.0,85,0.00,,,0.45,Wunderground v.1.13,2013-05-29 13:40:00,
2013-05-29 07:45:00,59.9,55.7,29.34,SE,142,0.0,14.0,86,0.00,,,0.45,Wunderground v.1.13,2013-05-29 13:45:00,
2013-05-29 07:50:00,60.2,55.7,29.33,ESE,121,0.0,14.0,85,0.00,,,0.45,Wunderground v.1.13,2013-05-29 13:50:00,
2013-05-29 07:55:00,60.7,55.8,29.33,ENE,78,0.0,14.0,84,0.00,,,0.45,Wunderground v.1.13,2013-05-29 13:55:00,
2013-05-29 08:00:00,60.9,55.7,29.33,East,92,0.0,14.0,83,0.00,,,0.45,Wunderground v.1.13,2013-05-29 14:00:00,
2013-05-29 08:04:00,61.3,55.4,29.33,ESE,112,1.0,1.0,81,0.00,,,0.45,Wunderground v.1.13,2013-05-29 14:04:00,
2013-05-29 08:10:00,61.5,55.3,29.33,SE,146,0.0,14.0,80,0.00,,,0.45,Wunderground v.1.13,2013-05-29 14:10:00,
2013-05-29 08:15:00,61.6,55.4,29.33,SE,134,1.0,1.0,80,0.00,,,0.45,Wunderground v.1.13,2013-05-29 14:15:00,
2013-05-29 08:25:00,62.0,55.4,29.32,SE,138,1.0,1.0,79,0.00,,,0.45,Wunderground v.1.13,2013-05-29 14:25:00,
2013-05-29 08:30:00,62.3,55.7,29.32,SE,142,1.0,1.0,79,0.00,,,0.45,Wunderground v.1.13,2013-05-29 14:30:00,
2013-05-29 08:35:00,62.6,56.0,29.32,SSE,147,1.0,14.0,79,0.00,,,0.45,Wunderground v.1.13,2013-05-29 14:35:00,
2013-05-29 08:40:00,62.9,55.9,29.32,SSE,149,1.0,1.0,78,0.00,,,0.45,Wunderground v.1.13,2013-05-29 14:40:00,
2013-05-29 08:45:00,63.1,55.8,29.32,SSE,150,1.0,14.0,77,0.00,,,0.45,Wunderground v.1.13,2013-05-29 14:45:00,
2013-05-29 08:55:00,63.2,55.9,29.31,SE,142,2.0,14.0,77,0.00,,,0.45,Wunderground v.1.13,2013-05-29 14:55:00,
2013-05-29 09:00:00,63.4,56.1,29.31,SE,138,3.0,3.0,77,0.00,,,0.45,Wunderground v.1.13,2013-05-29 15:00:00,
2013-05-29 09:05:00,63.9,56.9,29.31,SSE,157,2.0,2.0,78,0.00,,,0.45,Wunderground v.1.13,2013-05-29 15:05:00,
2013-05-29 09:10:00,64.5,56.8,29.31,SE,143,1.0,1.0,76,0.00,,,0.45,Wunderground v.1.13,2013-05-29 15:10:00,
2013-05-29 09:15:00,65.0,56.9,29.31,SE,142,1.0,1.0,75,0.00,,,0.45,Wunderground v.1.13,2013-05-29 15:15:00,
2013-05-29 09:20:00,65.0,56.5,29.30,SSE,148,2.0,14.0,74,0.00,,,0.45,Wunderground v.1.13,2013-05-29 15:20:00,
2013-05-29 09:25:00,65.5,57.4,29.30,SE,141,2.0,14.0,75,0.00,,,0.45,Wunderground v.1.13,2013-05-29 15:25:00,
2013-05-29 09:30:00,65.8,57.7,29.30,SE,144,2.0,2.0,75,0.00,,,0.45,Wunderground v.1.13,2013-05-29 15:30:00,
2013-05-29 09:35:00,66.3,57.4,29.31,SSE,164,1.0,1.0,73,0.00,,,0.45,Wunderground v.1.13,2013-05-29 15:35:00,
2013-05-29 09:40:00,66.6,57.7,29.31,SSE,157,0.0,14.0,73,0.00,,,0.45,Wunderground v.1.13,2013-05-29 15:40:00,
2013-05-29 09:45:00,67.1,58.2,29.31,SSE,157,0.0,14.0,73,0.00,,,0.45,Wunderground v.1.13,2013-05-29 15:45:00,
2013-05-29 09:49:00,68.1,58.3,29.32,SSE,157,0.0,14.0,71,0.00,,,0.45,Wunderground v.1.13,2013-05-29 15:49:00,
2013-05-29 09:55:00,68.9,58.3,29.32,SSE,157,0.0,14.0,69,0.00,,,0.45,Wunderground v.1.13,2013-05-29 15:55:00,
2013-05-29 10:05:00,69.6,59.0,29.32,NW,310,0.0,14.0,69,0.00,,,0.45,Wunderground v.1.13,2013-05-29 16:05:00,
2013-05-29 10:10:00,68.3,58.5,29.32,NNW,334,2.0,14.0,71,0.00,,,0.45,Wunderground v.1.13,2013-05-29 16:10:00,
2013-05-29 10:15:00,67.3,57.6,29.32,NW,322,6.0,14.0,71,0.00,,,0.45,Wunderground v.1.13,2013-05-29 16:15:00,
2013-05-29 10:20:00,65.6,56.7,29.31,NNW,346,6.0,14.0,73,0.00,,,0.45,Wunderground v.1.13,2013-05-29 16:20:00,
2013-05-29 10:25:00,65.3,57.5,29.31,NNW,329,5.0,5.0,76,0.00,,,0.45,Wunderground v.1.13,2013-05-29 16:25:00,
2013-05-29 10:30:00,66.0,57.1,29.31,NW,319,4.0,4.0,73,0.00,,,0.45,Wunderground v.1.13,2013-05-29 16:30:00,
2013-05-29 10:35:00,66.3,57.4,29.30,NNW,340,3.0,3.0,73,0.00,,,0.45,Wunderground v.1.13,2013-05-29 16:35:00,
2013-05-29 10:45:00,66.9,57.6,29.30,NNW,336,4.0,14.0,72,0.00,,,0.45,Wunderground v.1.13,2013-05-29 16:45:00,
2013-05-29 10:50:00,67.1,57.4,29.30,North,351,5.0,5.0,71,0.00,,,0.45,Wunderground v.1.13,2013-05-29 16:50:00,
2013-05-29 10:55:00,67.4,57.3,29.30,NW,307,5.0,5.0,70,0.00,,,0.45,Wunderground v.1.13,2013-05-29 16:55:00,
2013-05-29 11:05:00,68.1,56.7,29.31,NW,319,1.0,1.0,67,0.00,,,0.45,Wunderground v.1.13,2013-05-29 17:05:00,
2013-05-29 11:10:00,68.3,56.5,29.31,NNW,331,0.0,14.0,66,0.00,,,0.45,Wunderground v.1.13,2013-05-29 17:10:00,
2013-05-29 11:15:00,68.6,56.8,29.31,NNW,327,0.0,14.0,66,0.00,,,0.45,Wunderground v.1.13,2013-05-29 17:15:00,
2013-05-29 11:20:00,68.1,55.9,29.32,NNE,15,1.0,1.0,65,0.00,,,0.45,Wunderground v.1.13,2013-05-29 17:20:00,
2013-05-29 11:30:00,68.3,56.5,29.32,North,351,0.0,14.0,66,0.00,,,0.45,Wunderground v.1.13,2013-05-29 17:30:00,
2013-05-29 11:35:00,68.8,57.0,29.32,NNE,22,1.0,1.0,66,0.00,,,0.45,Wunderground v.1.13,2013-05-29 17:35:00,
2013-05-29 11:40:00,68.9,56.2,29.32,NW,318,1.0,14.0,64,0.00,,,0.45,Wunderground v.1.13,2013-05-29 17:40:00,
2013-05-29 11:45:00,69.4,56.7,29.32,NNE,19,1.0,1.0,64,0.00,,,0.45,Wunderground v.1.13,2013-05-29 17:45:00,
2013-05-29 11:55:00,70.3,57.1,29.32,NNE,27,1.0,14.0,63,0.00,,,0.45,Wunderground v.1.13,2013-05-29 17:55:00,
2013-05-29 11:59:00,70.3,57.1,29.32,NNE,25,2.0,14.0,63,0.00,,,0.45,Wunderground v.1.13,2013-05-29 17:59:00,
2013-05-29 12:05:00,70.9,56.3,29.30,NNW,333,2.0,2.0,60,0.00,,,0.45,Wunderground v.1.13,2013-05-29 18:05:00,
2013-05-29 12:10:00,70.9,57.2,29.30,North,10,1.0,1.0,62,0.00,,,0.45,Wunderground v.1.13,2013-05-29 18:10:00,
2013-05-29 12:15:00,70.8,56.7,29.30,NW,318,1.0,1.0,61,0.00,,,0.45,Wunderground v.1.13,2013-05-29 18:15:00,
2013-05-29 12:20:00,71.3,57.2,29.30,North,350,1.0,1.0,61,0.00,,,0.45,Wunderground v.1.13,2013-05-29 18:20:00,
2013-05-29 12:24:00,71.3,56.2,29.30,NNW,337,1.0,1.0,59,0.00,,,0.45,Wunderground v.1.13,2013-05-29 18:24:00,
2013-05-29 12:29:00,70.9,56.8,29.30,North,10,2.0,2.0,61,0.00,,,0.45,Wunderground v.1.13,2013-05-29 18:29:00,
2013-05-29 12:35:00,71.5,57.8,29.28,NNW,341,1.0,1.0,62,0.00,,,0.45,Wunderground v.1.13,2013-05-29 18:35:00,
2013-05-29 12:40:00,72.1,57.4,29.28,North,351,1.0,1.0,60,0.00,,,0.45,Wunderground v.1.13,2013-05-29 18:40:00,
2013-05-29 12:45:00,72.3,57.2,29.28,NE,34,2.0,2.0,59,0.00,,,0.45,Wunderground v.1.13,2013-05-29 18:45:00,
2013-05-29 12:50:00,71.6,56.5,29.27,NNW,330,1.0,1.0,59,0.00,,,0.45,Wunderground v.1.13,2013-05-29 18:50:00,
2013-05-29 12:59:00,71.5,56.9,29.27,NW,321,2.0,2.0,60,0.00,,,0.45,Wunderground v.1.13,2013-05-29 18:59:00,
2013-05-29 13:05:00,71.5,56.9,29.25,NNW,346,3.0,3.0,60,0.00,,,0.45,Wunderground v.1.13,2013-05-29 19:05:00,
2013-05-29 13:10:00,71.3,57.2,29.25,NW,307,2.0,16.0,61,0.00,,,0.45,Wunderground v.1.13,2013-05-29 19:10:00,
2013-05-29 13:15:00,70.4,56.3,29.25,NNW,331,4.0,4.0,61,0.00,,,0.45,Wunderground v.1.13,2013-05-29 19:15:00,
2013-05-29 13:20:00,69.8,56.6,29.25,NNW,334,3.0,3.0,63,0.00,,,0.45,Wunderground v.1.13,2013-05-29 19:20:00,
2013-05-29 13:25:00,69.9,56.3,29.25,NNW,342,1.0,14.0,62,0.00,,,0.45,Wunderground v.1.13,2013-05-29 19:25:00,
2013-05-29 13:29:00,69.4,55.8,29.25,North,350,2.0,2.0,62,0.00,,,0.45,Wunderground v.1.13,2013-05-29 19:29:00,
2013-05-29 13:40:00,69.3,56.2,29.25,North,360,0.0,14.0,63,0.00,,,0.45,Wunderground v.1.13,2013-05-29 19:40:00,
2013-05-29 13:45:00,69.3,56.6,29.25,North,351,0.0,14.0,64,0.00,,,0.45,Wunderground v.1.13,2013-05-29 19:45:00,
2013-05-29 13:50:00,69.1,56.4,29.27,North,351,0.0,14.0,64,0.00,,,0.45,Wunderground v.1.13,2013-05-29 19:50:00,
2013-05-29 14:00:00,68.4,56.2,29.27,North,351,0.0,14.0,65,0.00,,,0.45,Wunderground v.1.13,2013-05-29 20:00:00,
2013-05-29 14:05:00,68.3,56.5,29.25,NNW,348,0.0,14.0,66,0.00,,,0.45,Wunderground v.1.13,2013-05-29 20:05:00,
2013-05-29 14:09:00,68.1,56.7,29.25,NNW,333,0.0,14.0,67,0.00,,,0.45,Wunderground v.1.13,2013-05-29 20:09:00,
2013-05-29 14:14:00,67.9,56.5,29.25,NNW,333,0.0,14.0,67,0.00,,,0.45,Wunderground v.1.13,2013-05-29 20:14:00,
2013-05-29 14:19:00,67.9,56.5,29.26,NNW,334,0.0,14.0,67,0.00,,,0.45,Wunderground v.1.13,2013-05-29 20:19:00,
2013-05-29 14:25:00,67.8,56.9,29.26,NNW,334,0.0,14.0,68,0.00,,,0.45,Wunderground v.1.13,2013-05-29 20:25:00,
2013-05-29 14:30:00,67.4,56.9,29.26,NW,322,0.0,14.0,69,0.00,,,0.45,Wunderground v.1.13,2013-05-29 20:30:00,
2013-05-29 14:35:00,67.3,56.8,29.24,NNW,347,0.0,14.0,69,0.00,,,0.45,Wunderground v.1.13,2013-05-29 20:35:00,
2013-05-29 14:40:00,67.3,56.8,29.24,NNW,344,0.0,14.0,69,0.00,,,0.45,Wunderground v.1.13,2013-05-29 20:40:00,
2013-05-29 14:44:00,67.1,56.6,29.24,NNW,344,0.0,14.0,69,0.00,,,0.45,Wunderground v.1.13,2013-05-29 20:44:00,
2013-05-29 14:50:00,67.1,57.0,29.25,NNW,344,0.0,14.0,70,0.00,,,0.45,Wunderground v.1.13,2013-05-29 20:50:00,
2013-05-29 14:55:00,66.8,57.1,29.25,NNE,14,0.0,14.0,71,0.00,,,0.45,Wunderground v.1.13,2013-05-29 20:55:00,
2013-05-29 15:00:00,66.4,57.5,29.25,NNE,15,0.0,14.0,73,0.00,,,0.45,Wunderground v.1.13,2013-05-29 21:00:00,
2013-05-29 15:04:00,66.4,57.9,29.27,NNE,15,0.0,14.0,74,0.00,,,0.45,Wunderground v.1.13,2013-05-29 21:04:00,
2013-05-29 15:10:00,66.1,57.6,29.27,NNE,15,0.0,14.0,74,0.00,,,0.45,Wunderground v.1.13,2013-05-29 21:10:00,
2013-05-29 15:15:00,66.0,57.8,29.27,NNE,15,0.0,14.0,75,0.00,,,0.45,Wunderground v.1.13,2013-05-29 21:15:00,
2013-05-29 15:20:00,66.0,57.8,29.25,North,5,0.0,14.0,75,0.00,,,0.45,Wunderground v.1.13,2013-05-29 21:20:00,
2013-05-29 15:25:00,65.8,57.7,29.25,NNW,334,0.0,14.0,75,0.00,,,0.46,Wunderground v.1.13,2013-05-29 21:25:00,
2013-05-29 15:30:00,65.5,58.5,29.25,North,9,0.0,14.0,78,0.13,,,0.47,Wunderground v.1.13,2013-05-29 21:30:00,
2013-05-29 15:35:00,64.5,57.5,29.22,NNE,19,3.0,14.0,78,0.14,,,0.48,Wunderground v.1.13,2013-05-29 21:35:00,
2013-05-29 15:39:00,63.5,57.2,29.22,NNW,338,7.0,7.0,80,0.08,,,0.48,Wunderground v.1.13,2013-05-29 21:39:00,
2013-05-29 15:45:00,62.9,57.0,29.22,NNW,340,7.0,7.0,81,0.05,,,0.48,Wunderground v.1.13,2013-05-29 21:45:00,
2013-05-29 15:50:00,62.6,57.0,29.15,North,350,4.0,4.0,82,0.00,,,0.48,Wunderground v.1.13,2013-05-29 21:50:00,
2013-05-29 15:55:00,62.4,56.5,29.15,NNW,340,3.0,3.0,81,0.00,,,0.48,Wunderground v.1.13,2013-05-29 21:55:00,
2013-05-29 16:00:00,62.7,56.4,29.15,NNW,348,5.0,5.0,80,0.00,,,0.48,Wunderground v.1.13,2013-05-29 22:00:00,
2013-05-29 16:05:00,63.1,56.8,29.12,North,350,6.0,14.0,80,0.00,,,0.48,Wunderground v.1.13,2013-05-29 22:05:00,
2013-05-29 16:09:00,63.4,57.1,29.12,NNW,332,7.0,18.0,80,0.00,,,0.48,Wunderground v.1.13,2013-05-29 22:09:00,
2013-05-29 16:15:00,63.4,56.8,29.12,WNW,293,7.0,7.0,79,0.00,,,0.48,Wunderground v.1.13,2013-05-29 22:15:00,
2013-05-29 16:20:00,63.5,56.9,29.14,NNW,339,7.0,7.0,79,0.00,,,0.48,Wunderground v.1.13,2013-05-29 22:20:00,
2013-05-29 16:25:00,63.4,56.8,29.14,North,360,6.0,6.0,79,0.00,,,0.48,Wunderground v.1.13,2013-05-29 22:25:00,
2013-05-29 16:30:00,63.1,56.5,29.14,NNW,341,2.0,2.0,79,0.00,,,0.48,Wunderground v.1.13,2013-05-29 22:30:00,
2013-05-29 16:40:00,62.9,56.3,29.22,NNW,329,0.0,14.0,79,0.00,,,0.48,Wunderground v.1.13,2013-05-29 22:40:00,
2013-05-29 16:45:00,62.7,56.1,29.22,NNW,331,0.0,14.0,79,0.00,,,0.48,Wunderground v.1.13,2013-05-29 22:45:00,
2013-05-29 16:55:00,62.6,56.0,29.26,NNW,333,0.0,14.0,79,0.00,,,0.48,Wunderground v.1.13,2013-05-29 22:55:00,
2013-05-29 17:00:00,62.6,56.0,29.26,WNW,300,0.0,14.0,79,0.00,,,0.48,Wunderground v.1.13,2013-05-29 23:00:00,
2013-05-29 17:05:00,62.6,56.0,29.28,NW,309,0.0,14.0,79,0.00,,,0.48,Wunderground v.1.13,2013-05-29 23:05:00,
2013-05-29 17:10:00,62.6,56.3,29.28,NW,309,0.0,14.0,80,0.00,,,0.48,Wunderground v.1.13,2013-05-29 23:10:00,
2013-05-29 17:15:00,62.6,56.3,29.28,NW,310,0.0,14.0,80,0.00,,,0.48,Wunderground v.1.13,2013-05-29 23:15:00,
2013-05-29 17:20:00,62.6,56.7,29.26,NNW,342,0.0,14.0,81,0.00,,,0.48,Wunderground v.1.13,2013-05-29 23:20:00,
2013-05-29 17:25:00,62.6,56.3,29.26,NNE,19,0.0,14.0,80,0.00,,,0.48,Wunderground v.1.13,2013-05-29 23:25:00,
2013-05-29 17:30:00,62.7,56.4,29.26,NNE,15,0.0,14.0,80,0.00,,,0.48,Wunderground v.1.13,2013-05-29 23:30:00,
2013-05-29 17:35:00,62.7,56.1,29.26,North,350,0.0,14.0,79,0.00,,,0.48,Wunderground v.1.13,2013-05-29 23:35:00,
2013-05-29 17:40:00,62.7,56.1,29.26,NNW,327,0.0,14.0,79,0.00,,,0.48,Wunderground v.1.13,2013-05-29 23:40:00,
2013-05-29 17:45:00,62.7,55.7,29.26,NNW,337,1.0,1.0,78,0.00,,,0.48,Wunderground v.1.13,2013-05-29 23:45:00,
2013-05-29 17:49:00,62.6,55.6,29.27,NNW,340,1.0,14.0,78,0.00,,,0.48,Wunderground v.1.13,2013-05-29 23:49:00,
2013-05-29 17:55:00,62.6,55.3,29.27,NNW,343,2.0,2.0,77,0.00,,,0.48,Wunderground v.1.13,2013-05-29 23:55:00,
2013-05-29 18:00:00,62.6,55.6,29.27,NNW,335,2.0,2.0,78,0.00,,,0.48,Wunderground v.1.13,2013-05-30 00:00:00,
2013-05-29 18:05:00,62.1,53.3,29.30,WNW,296,0.0,14.0,73,0.00,,,0.49,Wunderground v.1.13,2013-05-30 00:05:00,
2013-05-29 18:10:00,61.6,52.9,29.30,West,269,0.0,14.0,73,0.00,,,0.49,Wunderground v.1.13,2013-05-30 00:10:00,
2013-05-29 18:15:00,61.2,52.8,29.30,West,274,0.0,14.0,74,0.00,,,0.49,Wunderground v.1.13,2013-05-30 00:15:00,
2013-05-29 18:20:00,60.7,52.0,29.34,WNW,285,0.0,14.0,73,0.00,,,0.49,Wunderground v.1.13,2013-05-30 00:20:00,
2013-05-29 18:25:00,59.6,52.0,29.34,West,277,5.0,14.0,76,0.37,,,0.51,Wunderground v.1.13,2013-05-30 00:25:00,
2013-05-29 18:30:00,58.6,51.8,29.34,NNW,327,10.0,10.0,78,0.42,,,0.56,Wunderground v.1.13,2013-05-30 00:30:00,
2013-05-29 18:35:00,57.6,51.8,29.32,NW,305,8.0,8.0,81,0.16,,,0.58,Wunderground v.1.13,2013-05-30 00:35:00,
2013-05-29 18:40:00,57.0,51.6,29.32,North,360,5.0,14.0,82,0.11,,,0.58,Wunderground v.1.13,2013-05-30 00:40:00,
2013-05-29 18:44:00,56.6,51.5,29.32,NNE,23,4.0,14.0,83,0.06,,,0.58,Wunderground v.1.13,2013-05-30 00:44:00,
2013-05-29 18:49:00,56.3,51.8,29.29,NNE,19,2.0,2.0,85,0.04,,,0.58,Wunderground v.1.13,2013-05-30 00:49:00,
2013-05-29 18:55:00,56.3,52.2,29.29,NNE,22,4.0,14.0,86,0.00,,,0.58,Wunderground v.1.13,2013-05-30 00:55:00,
2013-05-29 19:00:00,56.2,52.1,29.29,NE,36,7.0,14.0,86,0.00,,,0.58,Wunderground v.1.13,2013-05-30 01:00:00,
2013-05-29 19:05:00,55.9,52.1,29.27,North,350,5.0,5.0,87,0.00,,,0.58,Wunderground v.1.13,2013-05-30 01:05:00,
2013-05-29 19:10:00,55.7,52.2,29.27,North,351,4.0,4.0,88,0.00,,,0.58,Wunderground v.1.13,2013-05-30 01:10:00,
2013-05-29 19:15:00,55.3,51.8,29.27,NNE,22,5.0,5.0,88,0.00,,,0.58,Wunderground v.1.13,2013-05-30 01:15:00,
2013-05-29 19:20:00,55.1,51.6,29.27,NNW,340,3.0,3.0,88,0.00,,,0.58,Wunderground v.1.13,2013-05-30 01:20:00,
2013-05-29 19:30:00,54.8,51.3,29.27,North,360,0.0,14.0,88,0.00,,,0.58,Wunderground v.1.13,2013-05-30 01:30:00,
2013-05-29 19:34:00,55.0,51.8,29.30,NNW,336,0.0,14.0,89,0.00,,,0.58,Wunderground v.1.13,2013-05-30 01:34:00,
2013-05-29 19:40:00,55.1,51.9,29.30,North,360,0.0,14.0,89,0.00,,,0.58,Wunderground v.1.13,2013-05-30 01:40:00,
2013-05-29 19:45:00,55.1,51.9,29.30,North,360,0.0,14.0,89,0.00,,,0.58,Wunderground v.1.13,2013-05-30 01:45:00,
2013-05-29 19:50:00,55.1,51.9,29.29,North,360,0.0,14.0,89,0.00,,,0.58,Wunderground v.1.13,2013-05-30 01:50:00,
2013-05-29 19:55:00,55.1,51.9,29.29,North,360,0.0,14.0,89,0.00,,,0.58,Wunderground v.1.13,2013-05-30 01:55:00,
2013-05-29 20:00:00,55.0,51.8,29.29,North,360,0.0,14.0,89,0.00,,,0.58,Wunderground v.1.13,2013-05-30 02:00:00,
2013-05-29 20:05:00,55.0,51.8,29.30,North,360,0.0,14.0,89,0.00,,,0.58,Wunderground v.1.13,2013-05-30 02:05:00,
2013-05-29 20:10:00,55.0,51.8,29.30,North,360,0.0,14.0,89,0.00,,,0.58,Wunderground v.1.13,2013-05-30 02:10:00,
2013-05-29 20:14:00,55.1,51.6,29.30,North,350,0.0,14.0,88,0.00,,,0.58,Wunderground v.1.13,2013-05-30 02:14:00,
2013-05-29 20:19:00,55.3,51.8,29.31,North,351,0.0,14.0,88,0.00,,,0.58,Wunderground v.1.13,2013-05-30 02:19:00,
2013-05-29 20:25:00,55.3,51.5,29.31,North,351,0.0,14.0,87,0.00,,,0.58,Wunderground v.1.13,2013-05-30 02:25:00,
2013-05-29 20:30:00,55.3,51.5,29.31,North,351,0.0,14.0,87,0.00,,,0.58,Wunderground v.1.13,2013-05-30 02:30:00,
2013-05-29 20:35:00,55.3,51.5,29.30,North,351,0.0,14.0,87,0.00,,,0.58,Wunderground v.1.13,2013-05-30 02:35:00,
2013-05-29 20:40:00,55.1,51.3,29.30,North,351,0.0,14.0,87,0.00,,,0.58,Wunderground v.1.13,2013-05-30 02:40:00,
2013-05-29 20:45:00,55.0,51.2,29.30,North,351,0.0,14.0,87,0.00,,,0.58,Wunderground v.1.13,2013-05-30 02:45:00,
2013-05-29 20:55:00,55.0,51.5,29.32,North,351,0.0,14.0,88,0.00,,,0.58,Wunderground v.1.13,2013-05-30 02:55:00,
2013-05-29 21:00:00,55.1,51.6,29.32,North,351,0.0,14.0,88,0.00,,,0.58,Wunderground v.1.13,2013-05-30 03:00:00,
2013-05-29 21:05:00,55.0,51.5,29.35,North,351,0.0,14.0,88,0.00,,,0.58,Wunderground v.1.13,2013-05-30 03:05:00,
2013-05-29 21:10:00,55.0,51.8,29.35,North,351,0.0,14.0,89,0.00,,,0.58,Wunderground v.1.13,2013-05-30 03:10:00,
2013-05-29 21:20:00,54.7,51.5,29.34,North,351,0.0,14.0,89,0.00,,,0.58,Wunderground v.1.13,2013-05-30 03:20:00,
2013-05-29 21:25:00,54.5,51.3,29.34,North,351,0.0,14.0,89,0.00,,,0.58,Wunderground v.1.13,2013-05-30 03:25:00,
2013-05-29 21:30:00,54.5,51.6,29.34,North,351,0.0,14.0,90,0.00,,,0.58,Wunderground v.1.13,2013-05-30 03:30:00,
2013-05-29 21:35:00,54.5,51.6,29.36,North,351,0.0,14.0,90,0.00,,,0.58,Wunderground v.1.13,2013-05-30 03:35:00,
2013-05-29 21:40:00,54.5,51.6,29.36,North,351,0.0,14.0,90,0.00,,,0.58,Wunderground v.1.13,2013-05-30 03:40:00,
2013-05-29 21:45:00,54.5,51.6,29.36,North,351,0.0,14.0,90,0.00,,,0.58,Wunderground v.1.13,2013-05-30 03:45:00,
2013-05-29 21:50:00,54.7,51.8,29.38,NW,312,0.0,14.0,90,0.00,,,0.58,Wunderground v.1.13,2013-05-30 03:50:00,
2013-05-29 21:55:00,54.7,51.8,29.38,NW,312,0.0,14.0,90,0.00,,,0.58,Wunderground v.1.13,2013-05-30 03:55:00,
2013-05-29 22:00:00,54.7,51.8,29.38,NW,312,0.0,14.0,90,0.00,,,0.58,Wunderground v.1.13,2013-05-30 04:00:00,
2013-05-29 22:04:00,54.7,51.8,29.37,NW,312,0.0,14.0,90,0.00,,,0.58,Wunderground v.1.13,2013-05-30 04:04:00,
2013-05-29 22:15:00,54.7,51.8,29.37,NW,312,0.0,14.0,90,0.00,,,0.58,Wunderground v.1.13,2013-05-30 04:15:00,
2013-05-29 22:20:00,54.8,51.9,29.37,NW,312,0.0,14.0,90,0.00,,,0.58,Wunderground v.1.13,2013-05-30 04:20:00,
2013-05-29 22:30:00,55.0,52.1,29.37,NW,312,0.0,14.0,90,0.00,,,0.58,Wunderground v.1.13,2013-05-30 04:30:00,
2013-05-29 22:35:00,54.8,51.9,29.37,WNW,284,0.0,14.0,90,0.00,,,0.58,Wunderground v.1.13,2013-05-30 04:35:00,
2013-05-29 22:40:00,54.8,51.9,29.37,West,274,0.0,14.0,90,0.00,,,0.58,Wunderground v.1.13,2013-05-30 04:40:00,
2013-05-29 22:45:00,54.7,51.8,29.37,West,275,0.0,14.0,90,0.00,,,0.58,Wunderground v.1.13,2013-05-30 04:45:00,
2013-05-29 22:49:00,54.7,52.1,29.37,West,276,0.0,14.0,91,0.00,,,0.58,Wunderground v.1.13,2013-05-30 04:49:00,
2013-05-29 22:54:00,54.5,51.9,29.37,West,276,0.0,14.0,91,0.00,,,0.58,Wunderground v.1.13,2013-05-30 04:54:00,
2013-05-29 23:00:00,54.4,51.8,29.37,West,280,0.0,14.0,91,0.00,,,0.58,Wunderground v.1.13,2013-05-30 05:00:00,
2013-05-29 23:10:00,54.1,51.5,29.36,WNW,283,0.0,14.0,91,0.00,,,0.58,Wunderground v.1.13,2013-05-30 05:10:00,
2013-05-29 23:19:00,53.9,51.6,29.36,West,259,0.0,14.0,92,0.00,,,0.58,Wunderground v.1.13,2013-05-30 05:19:00,
2013-05-29 23:25:00,53.8,51.5,29.36,West,279,0.0,14.0,92,0.00,,,0.58,Wunderground v.1.13,2013-05-30 05:25:00,
2013-05-29 23:30:00,53.8,51.5,29.36,West,278,0.0,14.0,92,0.00,,,0.58,Wunderground v.1.13,2013-05-30 05:30:00,
2013-05-29 23:35:00,53.8,51.5,29.35,West,277,0.0,14.0,92,0.00,,,0.58,Wunderground v.1.13,2013-05-30 05:35:00,
2013-05-29 23:40:00,53.6,51.3,29.35,West,276,0.0,14.0,92,0.00,,,0.58,Wunderground v.1.13,2013-05-30 05:40:00,
2013-05-29 23:45:00,53.6,51.3,29.35,WSW,254,0.0,14.0,92,0.00,,,0.58,Wunderground v.1.13,2013-05-30 05:45:00,
2013-05-29 23:50:00,53.5,51.2,29.35,WSW,240,0.0,14.0,92,0.00,,,0.58,Wunderground v.1.13,2013-05-30 05:50:00,
2013-05-29 23:54:00,53.5,51.2,29.35,WSW,246,0.0,14.0,92,0.00,,,0.58,Wunderground v.1.13,2013-05-30 05:54:00,